virtualACA

Welcome To Vancouver International Airport CYVR

Hub Roster

Pilot Domicile Rank
Brian Kozushka - ACA1102CanadaChief Pilot
Thomas Geoghegan - ACA1617United StatesChief Pilot
Jean-Michel Lazare - ACA2310FranceChief Pilot
Michael Schwartz - ACA2511United StatesFirst Officer
Chris Woolbright - ACA3136United StatesSecond Officer

Current Vatsim Weather


CYVR 251200Z 31007KT 20SM SKC 09/08 A3011 RMK SLP199
Vancouver International Airport